Time;durP1;ratioP1;P1;durP2;ratioP2;P2;SDS_P1;SDS_P2;PMS_P1;PMS_P2;Temp;Humidity;BMP_temperature;BMP_pressure;BME280_temperature;BME280_humidity;BME280_pressure;Samples;Min_cycle;Max_cycle;Signal;HPM_P1;HPM_P2
2021/07/20 00:00:11;;;;;;;24.47;16.07;;;;;;;;;;5091542;28;20498;-62
2021/07/20 00:02:39;;;;;;;23.97;17.77;;;;;;;;;;5089461;28;20519;-61
2021/07/20 00:05:09;;;;;;;23.70;16.50;;;;;;;;;;5095441;28;20466;-61
2021/07/20 00:07:39;;;;;;;23.93;15.83;;;;;;;;;;5098562;28;20472;-62
2021/07/20 00:10:08;;;;;;;19.63;14.53;;;;;;;;;;5098294;28;20456;-63
2021/07/20 00:12:36;;;;;;;24.60;16.93;;;;;;;;;;5098763;28;20412;-61
2021/07/20 00:15:12;;;;;;;22.63;14.73;;;;;;;;;;5099547;28;20459;-62
2021/07/20 00:17:42;;;;;;;21.67;14.77;;;;;;;;;;5100032;28;20532;-59
2021/07/20 00:20:10;;;;;;;24.80;18.33;;;;;;;;;;5100012;28;20459;-59
2021/07/20 00:22:37;;;;;;;26.87;17.03;;;;;;;;;;5099633;28;20475;-63
2021/07/20 00:25:06;;;;;;;27.77;18.63;;;;;;;;;;5098951;28;20470;-62
2021/07/20 00:27:37;;;;;;;31.20;19.40;;;;;;;;;;5099003;28;20452;-62
2021/07/20 00:30:04;;;;;;;23.63;15.60;;;;;;;;;;5099139;28;20459;-62
2021/07/20 00:32:32;;;;;;;23.40;16.67;;;;;;;;;;5099511;28;20466;-62
2021/07/20 00:35:23;;;;;;;32.93;18.20;;;;;;;;;;5099424;28;20478;-61
2021/07/20 00:37:50;;;;;;;24.93;16.77;;;;;;;;;;5094286;28;20471;-62
2021/07/20 00:40:19;;;;;;;23.33;16.37;;;;;;;;;;5099780;28;20448;-63
2021/07/20 00:43:06;;;;;;;24.93;15.47;;;;;;;;;;5091615;28;20484;-58
2021/07/20 00:45:39;;;;;;;22.67;16.30;;;;;;;;;;5092685;28;20537;-61
2021/07/20 00:48:06;;;;;;;21.57;15.77;;;;;;;;;;5099566;28;20459;-62
2021/07/20 00:50:35;;;;;;;27.83;16.13;;;;;;;;;;5098700;28;20467;-62
2021/07/20 00:53:05;;;;;;;29.10;18.30;;;;;;;;;;5089715;28;20421;-61
2021/07/20 00:55:35;;;;;;;20.37;15.27;;;;;;;;;;5078582;28;20451;-62
2021/07/20 00:58:04;;;;;;;25.93;16.17;;;;;;;;;;5079196;28;20457;-62
2021/07/20 01:00:42;;;;;;;23.17;15.70;;;;;;;;;;5098121;28;20456;-63
2021/07/20 01:03:09;;;;;;;23.00;16.20;;;;;;;;;;5099154;28;20491;-62
2021/07/20 01:05:37;;;;;;;24.10;15.37;;;;;;;;;;5098946;28;20497;-62
2021/07/20 01:08:06;;;;;;;28.37;16.33;;;;;;;;;;5098696;28;20436;-63
2021/07/20 01:10:34;;;;;;;27.63;16.40;;;;;;;;;;5084991;28;20495;-62
2021/07/20 01:13:02;;;;;;;22.80;16.10;;;;;;;;;;5080866;28;20448;-61
2021/07/20 01:16:00;;;;;;;24.13;15.07;;;;;;;;;;5097202;28;20459;-60
2021/07/20 01:18:32;;;;;;;23.37;15.30;;;;;;;;;;5095574;28;20448;-61
2021/07/20 01:21:00;;;;;;;45.63;28.13;;;;;;;;;;5092333;28;20479;-61
2021/07/20 01:23:44;;;;;;;67.57;38.90;;;;;;;;;;5082724;28;20476;-62
2021/07/20 01:26:12;;;;;;;72.03;40.23;;;;;;;;;;5095688;28;20535;-63
2021/07/20 01:28:40;;;;;;;34.77;19.83;;;;;;;;;;5095554;28;20444;-62
2021/07/20 01:31:11;;;;;;;37.67;23.23;;;;;;;;;;5094828;28;20448;-62
2021/07/20 01:33:40;;;;;;;57.87;35.30;;;;;;;;;;5096056;28;20467;-63
2021/07/20 01:36:26;;;;;;;46.17;29.00;;;;;;;;;;5095712;28;20448;-62
2021/07/20 01:38:55;;;;;;;40.80;23.73;;;;;;;;;;5085028;28;20460;-61
2021/07/20 01:41:24;;;;;;;37.60;20.63;;;;;;;;;;5092820;28;20429;-61
2021/07/20 01:44:03;;;;;;;34.47;23.40;;;;;;;;;;5092879;28;20456;-62
2021/07/20 01:46:32;;;;;;;25.83;16.80;;;;;;;;;;5074966;28;20453;-64
2021/07/20 01:49:00;;;;;;;41.10;27.13;;;;;;;;;;5075523;28;20461;-61
2021/07/20 01:51:31;;;;;;;47.13;26.87;;;;;;;;;;5074966;28;20488;-62
2021/07/20 01:54:01;;;;;;;33.87;20.47;;;;;;;;;;5081811;28;20488;-62
2021/07/20 01:56:28;;;;;;;21.73;16.37;;;;;;;;;;5095019;28;20519;-61
2021/07/20 01:59:01;;;;;;;29.57;18.90;;;;;;;;;;5094416;28;20448;-61
2021/07/20 02:01:29;;;;;;;32.77;21.90;;;;;;;;;;5094072;28;20464;-63
2021/07/20 02:09:30;;;;;;;26.07;16.00;;;;;;;;;;5074127;28;20417;-62
2021/07/20 02:11:58;;;;;;;30.67;18.43;;;;;;;;;;5074287;28;20524;-62
2021/07/20 02:14:29;;;;;;;23.63;16.00;;;;;;;;;;5074661;28;20517;-62
2021/07/20 02:17:29;;;;;;;24.03;14.93;;;;;;;;;;5075669;28;20473;-62
2021/07/20 02:19:59;;;;;;;22.97;14.67;;;;;;;;;;5077923;28;20527;-62
2021/07/20 02:22:27;;;;;;;23.80;16.70;;;;;;;;;;5095124;28;20623;-60
2021/07/20 02:25:13;;;;;;;25.50;16.40;;;;;;;;;;5094801;28;20510;-62
2021/07/20 02:27:41;;;;;;;22.57;16.20;;;;;;;;;;5093466;28;20662;-61
2021/07/20 02:30:11;;;;;;;20.53;14.93;;;;;;;;;;5093675;28;20468;-61
2021/07/20 02:32:40;;;;;;;20.27;14.73;;;;;;;;;;5093749;28;20523;-60
2021/07/20 02:35:12;;;;;;;24.70;16.87;;;;;;;;;;5093974;28;20436;-62
2021/07/20 02:37:42;;;;;;;24.13;17.30;;;;;;;;;;5093450;28;20504;-61
2021/07/20 02:40:12;;;;;;;24.53;16.40;;;;;;;;;;5093560;28;20456;-62
2021/07/20 02:42:40;;;;;;;22.23;15.73;;;;;;;;;;5095277;28;20505;-61
2021/07/20 02:45:08;;;;;;;24.63;16.50;;;;;;;;;;5095924;28;20470;-61
2021/07/20 02:47:37;;;;;;;26.10;15.40;;;;;;;;;;5094761;28;20452;-62
2021/07/20 02:50:06;;;;;;;23.13;16.50;;;;;;;;;;5094402;28;20498;-61
2021/07/20 02:52:37;;;;;;;22.53;16.63;;;;;;;;;;5080969;28;20452;-63
2021/07/20 02:55:17;;;;;;;23.70;15.83;;;;;;;;;;5074386;28;20551;-61
2021/07/20 02:57:50;;;;;;;26.60;16.90;;;;;;;;;;5075672;28;20457;-62
2021/07/20 03:00:19;;;;;;;24.43;17.20;;;;;;;;;;5094408;28;20458;-59
2021/07/20 03:02:47;;;;;;;22.20;15.60;;;;;;;;;;5094967;28;20582;-61
2021/07/20 03:08:28;;;;;;;25.07;15.00;;;;;;;;;;5091826;28;20434;-60
2021/07/20 03:11:14;;;;;;;22.63;13.67;;;;;;;;;;5075447;28;20428;-61
2021/07/20 03:13:48;;;;;;;21.43;14.57;;;;;;;;;;5080249;28;20434;-61
2021/07/20 03:16:16;;;;;;;23.40;13.77;;;;;;;;;;5081526;28;20490;-61
2021/07/20 03:18:48;;;;;;;20.17;13.70;;;;;;;;;;5077056;28;20492;-61
2021/07/20 03:21:23;;;;;;;25.33;14.77;;;;;;;;;;5073276;28;20767;-61
2021/07/20 03:23:52;;;;;;;20.97;14.03;;;;;;;;;;5088135;28;20503;-61
2021/07/20 03:26:24;;;;;;;22.80;12.63;;;;;;;;;;5093761;28;20460;-61
2021/07/20 03:29:10;;;;;;;23.60;14.47;;;;;;;;;;5093700;28;20531;-60
2021/07/20 03:31:38;;;;;;;20.47;13.07;;;;;;;;;;5091256;28;20495;-60
2021/07/20 03:34:07;;;;;;;21.50;14.70;;;;;;;;;;5094069;28;20472;-61
2021/07/20 03:36:35;;;;;;;20.70;12.90;;;;;;;;;;5090273;28;20449;-61
2021/07/20 03:39:03;;;;;;;18.20;12.93;;;;;;;;;;5081203;28;20460;-61
2021/07/20 03:41:32;;;;;;;18.13;13.60;;;;;;;;;;5093585;28;20462;-60
2021/07/20 03:44:22;;;;;;;19.90;13.20;;;;;;;;;;5093974;28;20475;-60
2021/07/20 03:46:49;;;;;;;17.20;11.57;;;;;;;;;;5094564;28;20456;-61
2021/07/20 03:49:17;;;;;;;19.70;12.63;;;;;;;;;;5091886;28;20452;-62
2021/07/20 03:51:53;;;;;;;18.77;13.07;;;;;;;;;;5073507;28;20461;-60
2021/07/20 03:54:21;;;;;;;18.63;13.27;;;;;;;;;;5084272;28;20523;-63
2021/07/20 03:56:50;;;;;;;16.33;12.90;;;;;;;;;;5094300;28;20467;-62
2021/07/20 03:59:50;;;;;;;18.43;12.27;;;;;;;;;;5094974;28;20466;-60
2021/07/20 04:02:21;;;;;;;17.70;11.90;;;;;;;;;;5092137;28;20559;-62
2021/07/20 04:04:50;;;;;;;17.13;12.70;;;;;;;;;;5094377;28;20464;-60
2021/07/20 04:07:32;;;;;;;20.20;12.00;;;;;;;;;;5093242;28;20464;-62
2021/07/20 04:10:04;;;;;;;18.47;13.37;;;;;;;;;;5073734;28;20464;-61
2021/07/20 04:12:37;;;;;;;20.87;12.50;;;;;;;;;;5073156;28;20464;-62
2021/07/20 04:17:32;;;;;;;19.23;13.33;;;;;;;;;;5153139;27;20530;-60
2021/07/20 04:20:01;;;;;;;22.43;13.60;;;;;;;;;;5152941;28;20426;-62
2021/07/20 04:22:57;;;;;;;15.47;10.87;;;;;;;;;;5153238;28;20469;-60
2021/07/20 04:25:24;;;;;;;18.60;12.50;;;;;;;;;;5152870;28;20457;-66
2021/07/20 04:27:53;;;;;;;18.10;12.23;;;;;;;;;;5162661;27;20520;-61
2021/07/20 04:30:26;;;;;;;18.47;12.90;;;;;;;;;;5132385;28;20546;-62
2021/07/20 04:32:59;;;;;;;19.43;12.27;;;;;;;;;;5131755;28;20451;-61
2021/07/20 04:35:27;;;;;;;22.60;15.20;;;;;;;;;;5151365;28;20500;-62
2021/07/20 04:38:04;;;;;;;21.23;12.80;;;;;;;;;;5150836;28;20456;-62
2021/07/20 04:40:32;;;;;;;19.30;12.40;;;;;;;;;;5152411;28;20453;-62
2021/07/20 04:43:07;;;;;;;16.30;12.20;;;;;;;;;;5152315;28;20521;-62
2021/07/20 04:45:53;;;;;;;18.97;13.23;;;;;;;;;;5136915;28;20507;-62
2021/07/20 04:48:24;;;;;;;20.17;14.03;;;;;;;;;;5132884;28;20460;-62
2021/07/20 04:51:04;;;;;;;20.10;12.13;;;;;;;;;;5131030;28;20446;-63
2021/07/20 04:53:38;;;;;;;17.13;12.50;;;;;;;;;;5132436;28;20458;-63
2021/07/20 04:56:06;;;;;;;18.27;12.83;;;;;;;;;;5132190;28;20486;-62
2021/07/20 04:58:37;;;;;;;18.40;13.30;;;;;;;;;;5131610;28;20431;-63
2021/07/20 05:01:05;;;;;;;22.60;14.87;;;;;;;;;;5131822;28;20463;-63
2021/07/20 05:03:35;;;;;;;20.23;12.53;;;;;;;;;;5132288;28;20458;-61
2021/07/20 05:06:10;;;;;;;21.80;13.90;;;;;;;;;;5132099;28;20734;-62
2021/07/20 05:08:40;;;;;;;23.30;14.20;;;;;;;;;;5144650;28;20568;-59
2021/07/20 05:11:08;;;;;;;20.43;13.43;;;;;;;;;;5152546;28;20457;-62
2021/07/20 05:13:44;;;;;;;16.97;12.53;;;;;;;;;;5152672;28;20453;-62
2021/07/20 05:16:13;;;;;;;19.07;13.20;;;;;;;;;;5152938;27;20489;-62
2021/07/20 05:18:45;;;;;;;17.97;12.00;;;;;;;;;;5141483;28;20447;-60
2021/07/20 05:21:29;;;;;;;17.80;13.20;;;;;;;;;;5135972;28;20460;-61
2021/07/20 05:23:58;;;;;;;16.73;12.00;;;;;;;;;;5152689;27;20458;-60
2021/07/20 05:26:28;;;;;;;18.10;13.30;;;;;;;;;;5152861;28;20473;-60
2021/07/20 05:28:57;;;;;;;17.63;13.13;;;;;;;;;;5138244;28;20517;-64
2021/07/20 05:31:29;;;;;;;20.00;13.13;;;;;;;;;;5138649;28;20454;-63
2021/07/20 05:34:09;;;;;;;19.33;12.30;;;;;;;;;;5131943;28;20439;-60
2021/07/20 05:36:37;;;;;;;18.53;12.63;;;;;;;;;;5128691;28;20474;-63
2021/07/20 05:39:06;;;;;;;19.73;13.33;;;;;;;;;;5122163;28;20453;-62
2021/07/20 05:41:38;;;;;;;21.83;13.93;;;;;;;;;;5139527;28;20473;-62
2021/07/20 05:44:07;;;;;;;18.93;12.57;;;;;;;;;;5136080;28;20508;-62
2021/07/20 05:46:39;;;;;;;23.97;14.60;;;;;;;;;;5139417;28;20461;-63
2021/07/20 05:52:18;;;;;;;18.00;12.90;;;;;;;;;;5127258;28;20501;-63
2021/07/20 05:55:04;;;;;;;18.00;14.10;;;;;;;;;;5129933;28;20472;-60
2021/07/20 05:57:33;;;;;;;20.10;13.57;;;;;;;;;;5138205;28;20481;-61
2021/07/20 06:00:09;;;;;;;17.17;12.77;;;;;;;;;;5122409;28;20507;-60
2021/07/20 06:02:40;;;;;;;19.27;13.43;;;;;;;;;;5117700;28;20505;-60
2021/07/20 06:05:10;;;;;;;18.33;13.27;;;;;;;;;;5118060;28;20485;-61
2021/07/20 06:07:47;;;;;;;19.20;13.70;;;;;;;;;;5122958;28;20434;-61
2021/07/20 06:10:18;;;;;;;20.57;14.20;;;;;;;;;;5117960;28;20462;-58
2021/07/20 06:12:45;;;;;;;18.67;13.57;;;;;;;;;;5132836;28;20458;-62
2021/07/20 06:18:17;;;;;;;22.53;13.67;;;;;;;;;;5137958;28;20463;-62
2021/07/20 06:20:50;;;;;;;19.10;12.67;;;;;;;;;;5137579;28;20451;-60
2021/07/20 06:23:18;;;;;;;36.17;18.47;;;;;;;;;;5137419;28;20450;-63
2021/07/20 06:25:46;;;;;;;21.57;13.73;;;;;;;;;;5137644;28;20442;-61
2021/07/20 06:28:19;;;;;;;21.30;14.30;;;;;;;;;;5137197;28;20450;-62
2021/07/20 06:30:47;;;;;;;19.53;13.70;;;;;;;;;;5137138;28;20456;-60
2021/07/20 06:33:16;;;;;;;18.60;14.00;;;;;;;;;;5136767;28;20454;-63
2021/07/20 06:36:09;;;;;;;21.60;15.97;;;;;;;;;;5137345;28;20446;-60
2021/07/20 06:38:45;;;;;;;20.17;12.83;;;;;;;;;;5135176;28;20514;-62
2021/07/20 06:41:13;;;;;;;18.10;13.97;;;;;;;;;;5137613;28;20442;-62
2021/07/20 06:43:43;;;;;;;18.70;14.50;;;;;;;;;;5122596;28;20450;-62
2021/07/20 06:46:14;;;;;;;19.87;13.57;;;;;;;;;;5126712;28;20749;-62
2021/07/20 06:48:48;;;;;;;20.10;14.60;;;;;;;;;;5137572;28;20447;-61
2021/07/20 06:51:16;;;;;;;26.40;16.87;;;;;;;;;;5123868;28;20473;-58
2021/07/20 06:54:06;;;;;;;21.93;14.80;;;;;;;;;;5130129;28;20493;-60
2021/07/20 06:56:35;;;;;;;20.57;15.07;;;;;;;;;;5134415;28;20486;-62
2021/07/20 06:59:06;;;;;;;20.73;15.00;;;;;;;;;;5117882;28;20446;-61
2021/07/20 07:02:11;;;;;;;19.53;13.87;;;;;;;;;;5126422;28;20493;-63
2021/07/20 07:08:02;;;;;;;20.73;14.97;;;;;;;;;;5126338;28;20471;-61
2021/07/20 07:10:38;;;;;;;21.43;15.87;;;;;;;;;;5127915;28;20467;-62
2021/07/20 07:13:07;;;;;;;21.83;14.37;;;;;;;;;;5127580;28;20441;-62
2021/07/20 07:15:36;;;;;;;19.83;13.70;;;;;;;;;;5122525;28;20463;-64
2021/07/20 07:18:36;;;;;;;24.83;16.67;;;;;;;;;;5128094;28;20504;-60
2021/07/20 07:21:04;;;;;;;23.43;14.60;;;;;;;;;;5130945;28;20519;-61
2021/07/20 07:23:39;;;;;;;22.70;16.83;;;;;;;;;;5121782;28;20478;-61
2021/07/20 07:26:13;;;;;;;23.90;16.20;;;;;;;;;;5129401;28;20472;-62
2021/07/20 07:28:53;;;;;;;23.40;15.97;;;;;;;;;;5134053;28;20533;-62
2021/07/20 07:31:21;;;;;;;20.13;16.47;;;;;;;;;;5136026;28;20457;-61
2021/07/20 07:33:51;;;;;;;25.10;16.43;;;;;;;;;;5132659;28;20479;-61
2021/07/20 07:36:33;;;;;;;24.87;17.40;;;;;;;;;;5122049;28;20491;-62
2021/07/20 07:39:03;;;;;;;23.80;17.20;;;;;;;;;;5125703;28;20455;-61
2021/07/20 07:41:34;;;;;;;25.33;14.73;;;;;;;;;;5135261;28;20471;-60
2021/07/20 07:44:17;;;;;;;22.43;15.20;;;;;;;;;;5135711;28;20456;-62
2021/07/20 07:46:46;;;;;;;24.97;17.90;;;;;;;;;;5133504;28;20511;-58
2021/07/20 07:49:15;;;;;;;19.37;15.40;;;;;;;;;;5136019;28;20530;-62
2021/07/20 07:51:45;;;;;;;24.70;15.93;;;;;;;;;;5130533;28;20449;-60
2021/07/20 07:54:13;;;;;;;19.70;13.60;;;;;;;;;;5126189;28;20470;-62
2021/07/20 07:56:43;;;;;;;27.77;16.40;;;;;;;;;;5128518;28;20515;-62
2021/07/20 07:59:28;;;;;;;21.07;15.20;;;;;;;;;;5133845;28;20471;-61
2021/07/20 08:01:57;;;;;;;25.33;15.70;;;;;;;;;;5135230;27;20455;-61
2021/07/20 08:04:41;;;;;;;27.80;16.77;;;;;;;;;;5129553;28;20447;-61
2021/07/20 08:07:11;;;;;;;22.77;16.17;;;;;;;;;;5126651;28;20498;-60
2021/07/20 08:09:40;;;;;;;23.70;16.47;;;;;;;;;;5133862;28;20465;-51
2021/07/20 08:12:22;;;;;;;22.30;15.00;;;;;;;;;;5131092;28;20513;-63
2021/07/20 08:18:09;;;;;;;24.50;16.00;;;;;;;;;;5134653;28;20483;-60
2021/07/20 08:20:38;;;;;;;22.83;15.30;;;;;;;;;;5134386;28;20464;-65
2021/07/20 08:23:05;;;;;;;22.17;15.17;;;;;;;;;;5135645;28;20438;-61
2021/07/20 08:25:52;;;;;;;20.83;15.40;;;;;;;;;;5135891;28;20446;-64
2021/07/20 08:28:28;;;;;;;22.30;16.13;;;;;;;;;;5134924;28;20609;-62
2021/07/20 08:31:00;;;;;;;24.70;14.33;;;;;;;;;;5134339;28;20476;-62
2021/07/20 08:33:38;;;;;;;18.33;14.27;;;;;;;;;;5134687;28;20458;-62
2021/07/20 08:36:10;;;;;;;18.30;13.87;;;;;;;;;;5134607;28;20437;-62
2021/07/20 08:38:51;;;;;;;21.60;14.87;;;;;;;;;;5151724;28;20470;-59
2021/07/20 08:41:27;;;;;;;17.13;12.73;;;;;;;;;;5114860;28;20452;-63
2021/07/20 08:44:16;;;;;;;20.20;13.87;;;;;;;;;;5116427;28;20476;-60
2021/07/20 08:46:51;;;;;;;14.97;11.17;;;;;;;;;;5127808;28;20475;-61
2021/07/20 08:49:58;;;;;;;17.90;12.87;;;;;;;;;;5134469;28;20456;-62
2021/07/20 08:52:30;;;;;;;17.00;13.23;;;;;;;;;;5135207;28;20456;-61
2021/07/20 08:55:05;;;;;;;16.90;12.00;;;;;;;;;;5136025;28;20496;-61
2021/07/20 08:57:58;;;;;;;22.33;12.23;;;;;;;;;;5135598;28;20480;-60
2021/07/20 09:00:45;;;;;;;20.07;12.63;;;;;;;;;;5115568;28;20463;-61
2021/07/20 09:03:32;;;;;;;23.60;13.70;;;;;;;;;;5124530;28;20468;-62
2021/07/20 09:06:23;;;;;;;16.17;11.00;;;;;;;;;;5139034;28;20453;-63
2021/07/20 09:11:55;;;;;;;11.77;9.87;;;;;;;;;;5139158;28;20409;-60
2021/07/20 09:14:29;;;;;;;12.13;10.43;;;;;;;;;;5136498;28;20439;-62
2021/07/20 09:16:59;;;;;;;18.27;11.40;;;;;;;;;;5139556;28;20511;-61
2021/07/20 09:19:51;;;;;;;19.60;11.50;;;;;;;;;;5139314;28;20442;-61
2021/07/20 09:22:22;;;;;;;15.57;10.70;;;;;;;;;;5138818;28;20462;-61
2021/07/20 09:25:01;;;;;;;15.33;10.90;;;;;;;;;;5138944;28;20450;-61
2021/07/20 09:27:57;;;;;;;20.67;9.40;;;;;;;;;;5148755;27;20454;-58
2021/07/20 09:30:27;;;;;;;17.70;10.93;;;;;;;;;;5118485;27;20503;-65
2021/07/20 09:33:15;;;;;;;17.80;11.47;;;;;;;;;;5167269;27;20515;-61
2021/07/20 09:35:51;;;;;;;16.53;11.30;;;;;;;;;;5169765;27;20451;-61
2021/07/20 09:38:45;;;;;;;24.47;11.93;;;;;;;;;;5158616;27;20496;-63
2021/07/20 09:41:18;;;;;;;14.80;10.70;;;;;;;;;;5158059;27;20517;-60
2021/07/20 09:47:01;;;;;;;17.63;10.57;;;;;;;;;;5159045;27;20407;-61
2021/07/20 09:49:35;;;;;;;14.83;10.27;;;;;;;;;;5158944;27;20439;-61
2021/07/20 09:52:36;;;;;;;16.40;12.00;;;;;;;;;;5158491;27;20479;-60
2021/07/20 09:55:14;;;;;;;19.63;11.00;;;;;;;;;;5155407;27;20506;-61
2021/07/20 09:57:48;;;;;;;16.30;10.40;;;;;;;;;;5158933;27;20524;-61
2021/07/20 10:00:18;;;;;;;15.73;9.77;;;;;;;;;;5158918;27;20490;-59
2021/07/20 10:03:05;;;;;;;14.00;10.80;;;;;;;;;;5157140;27;20476;-58
2021/07/20 10:05:48;;;;;;;14.93;9.90;;;;;;;;;;5158728;27;20538;-62
2021/07/20 10:08:23;;;;;;;12.93;8.80;;;;;;;;;;5158964;27;20446;-57
2021/07/20 10:10:57;;;;;;;17.87;10.50;;;;;;;;;;5158969;27;20444;-64
2021/07/20 10:13:31;;;;;;;15.10;9.77;;;;;;;;;;5158383;27;20442;-61
2021/07/20 10:16:02;;;;;;;15.47;9.20;;;;;;;;;;5158763;27;20445;-63
2021/07/20 10:18:40;;;;;;;13.50;8.70;;;;;;;;;;5157765;27;20510;-63
2021/07/20 10:21:09;;;;;;;16.47;11.07;;;;;;;;;;5139177;27;20481;-61
2021/07/20 10:23:39;;;;;;;13.50;9.30;;;;;;;;;;5137808;27;20471;-61
2021/07/20 10:26:19;;;;;;;15.37;10.23;;;;;;;;;;5158273;27;20430;-58
2021/07/20 10:28:51;;;;;;;18.87;10.23;;;;;;;;;;5151677;27;20454;-58
2021/07/20 10:31:21;;;;;;;12.03;10.00;;;;;;;;;;5158124;27;20457;-61
2021/07/20 10:33:58;;;;;;;17.60;10.60;;;;;;;;;;5157688;27;20457;-62
2021/07/20 10:36:28;;;;;;;14.50;10.63;;;;;;;;;;5152825;27;20488;-60
2021/07/20 10:39:05;;;;;;;18.33;11.63;;;;;;;;;;5154509;27;20547;-62
2021/07/20 10:41:56;;;;;;;12.77;10.23;;;;;;;;;;5157922;27;20441;-60
2021/07/20 10:44:41;;;;;;;21.60;12.17;;;;;;;;;;5159338;27;20450;-62
2021/07/20 10:47:36;;;;;;;15.93;10.23;;;;;;;;;;5149139;27;20435;-60
2021/07/20 10:50:06;;;;;;;12.13;8.10;;;;;;;;;;5137503;27;20462;-61
2021/07/20 10:52:48;;;;;;;13.43;9.07;;;;;;;;;;5157827;27;20418;-61
2021/07/20 10:55:27;;;;;;;17.17;10.63;;;;;;;;;;5137423;28;20469;-62
2021/07/20 10:58:17;;;;;;;12.63;9.37;;;;;;;;;;5151582;27;20506;-61
2021/07/20 11:01:13;;;;;;;15.13;10.63;;;;;;;;;;5154674;27;20434;-64
2021/07/20 11:03:45;;;;;;;14.33;9.90;;;;;;;;;;5140581;27;20443;-58
2021/07/20 11:06:16;;;;;;;21.47;10.07;;;;;;;;;;5148257;27;20454;-57
2021/07/20 11:08:46;;;;;;;13.20;10.00;;;;;;;;;;5140443;27;20450;-59
2021/07/20 11:11:17;;;;;;;16.00;9.40;;;;;;;;;;5156969;27;20446;-63
2021/07/20 11:13:55;;;;;;;20.23;11.10;;;;;;;;;;5135991;28;20440;-59
2021/07/20 11:16:30;;;;;;;15.73;9.17;;;;;;;;;;5135619;28;20458;-63
2021/07/20 11:19:02;;;;;;;21.50;10.60;;;;;;;;;;5144121;27;20908;-63
2021/07/20 11:21:30;;;;;;;15.80;10.87;;;;;;;;;;5135217;28;20446;-63
2021/07/20 11:23:59;;;;;;;15.53;10.50;;;;;;;;;;5145889;27;20505;-61
2021/07/20 11:26:31;;;;;;;15.13;10.30;;;;;;;;;;5151778;27;20472;-61
2021/07/20 11:29:15;;;;;;;14.40;9.43;;;;;;;;;;5153036;27;20467;-61
2021/07/20 11:31:44;;;;;;;15.37;10.57;;;;;;;;;;5145102;27;20478;-61
2021/07/20 11:34:18;;;;;;;14.47;10.00;;;;;;;;;;5155710;27;20505;-61
2021/07/20 11:39:27;;;;;;;15.90;10.60;;;;;;;;;;5154124;27;20549;-59
2021/07/20 11:41:57;;;;;;;19.57;11.50;;;;;;;;;;5155381;27;20478;-61
2021/07/20 11:47:29;;;;;;;14.93;10.23;;;;;;;;;;5133365;28;20546;-62
2021/07/20 11:50:06;;;;;;;15.70;10.30;;;;;;;;;;5119784;28;20463;-66
2021/07/20 11:52:49;;;;;;;17.77;11.37;;;;;;;;;;5126377;28;20438;-61
2021/07/20 11:55:31;;;;;;;19.90;11.80;;;;;;;;;;5114498;28;20513;-60
2021/07/20 12:01:39;;;;;;;14.20;9.47;;;;;;;;;;5120705;28;20467;-63
2021/07/20 12:09:54;;;;;;;19.40;10.90;;;;;;;;;;5133839;27;20467;-61
2021/07/20 12:12:33;;;;;;;11.87;9.47;;;;;;;;;;5135657;28;20303;-60
2021/07/20 12:15:01;;;;;;;14.33;9.03;;;;;;;;;;5135409;28;20547;-63
2021/07/20 12:17:34;;;;;;;14.10;10.77;;;;;;;;;;5135414;28;20439;-62
2021/07/20 12:20:02;;;;;;;11.70;9.63;;;;;;;;;;5135787;28;20458;-62
2021/07/20 12:22:31;;;;;;;12.33;9.60;;;;;;;;;;5136140;28;20419;-60
2021/07/20 12:25:25;;;;;;;19.63;11.00;;;;;;;;;;5134990;28;20472;-59
2021/07/20 12:27:54;;;;;;;14.93;10.60;;;;;;;;;;5133141;28;20470;-61
2021/07/20 12:30:32;;;;;;;15.73;10.40;;;;;;;;;;5138764;28;20468;-64
2021/07/20 12:33:04;;;;;;;16.10;9.80;;;;;;;;;;5128034;28;20508;-63
2021/07/20 12:35:33;;;;;;;15.77;9.43;;;;;;;;;;5134483;28;20468;-63
2021/07/20 12:38:33;;;;;;;15.07;10.97;;;;;;;;;;5136420;28;20557;-61
2021/07/20 12:41:07;;;;;;;13.20;9.90;;;;;;;;;;5138660;28;20450;-60
2021/07/20 12:43:37;;;;;;;14.70;9.43;;;;;;;;;;5126873;28;20440;-59
2021/07/20 12:46:36;;;;;;;14.60;10.03;;;;;;;;;;5140192;28;20465;-60
2021/07/20 12:49:06;;;;;;;12.73;9.77;;;;;;;;;;5136494;28;20513;-62
2021/07/20 12:51:33;;;;;;;17.37;11.63;;;;;;;;;;5125262;28;20442;-60
2021/07/20 12:54:11;;;;;;;20.20;9.77;;;;;;;;;;5125442;28;20442;-63
2021/07/20 12:56:55;;;;;;;17.03;10.77;;;;;;;;;;5122809;28;20518;-62
2021/07/20 12:59:27;;;;;;;14.37;10.40;;;;;;;;;;5116686;28;20487;-60
2021/07/20 13:01:56;;;;;;;15.53;10.10;;;;;;;;;;5118290;28;20473;-60
2021/07/20 13:04:24;;;;;;;13.53;10.00;;;;;;;;;;5118385;28;20447;-60
2021/07/20 13:07:13;;;;;;;18.80;9.57;;;;;;;;;;5118336;28;20489;-61
2021/07/20 13:09:55;;;;;;;16.93;9.13;;;;;;;;;;5118113;28;20477;-63
2021/07/20 13:12:27;;;;;;;17.43;10.60;;;;;;;;;;5118698;28;20630;-61
2021/07/20 13:14:55;;;;;;;18.60;9.67;;;;;;;;;;5118426;28;20455;-61
2021/07/20 13:17:30;;;;;;;10.07;8.80;;;;;;;;;;5119010;28;20467;-59
2021/07/20 13:20:00;;;;;;;12.20;7.87;;;;;;;;;;5117744;28;20470;-59
2021/07/20 13:22:28;;;;;;;13.73;8.63;;;;;;;;;;5118170;28;20445;-61
2021/07/20 13:25:09;;;;;;;15.40;8.70;;;;;;;;;;5118655;28;20465;-60
2021/07/20 13:27:41;;;;;;;12.20;8.60;;;;;;;;;;5098724;28;20488;-59
2021/07/20 13:30:31;;;;;;;13.63;9.00;;;;;;;;;;5118653;28;20455;-59
2021/07/20 13:33:07;;;;;;;15.20;9.87;;;;;;;;;;5119107;27;20523;-61
2021/07/20 13:35:34;;;;;;;24.73;10.27;;;;;;;;;;5118160;28;20459;-60
2021/07/20 13:38:10;;;;;;;13.43;9.40;;;;;;;;;;5118361;27;20472;-63
2021/07/20 13:40:40;;;;;;;11.20;7.93;;;;;;;;;;5117709;27;20523;-60
2021/07/20 13:43:09;;;;;;;12.20;9.60;;;;;;;;;;5117001;28;20469;-61
2021/07/20 13:45:37;;;;;;;13.47;9.00;;;;;;;;;;5137857;28;20494;-61
2021/07/20 13:48:12;;;;;;;14.97;10.53;;;;;;;;;;5130955;28;20428;-62
2021/07/20 13:50:42;;;;;;;14.23;9.40;;;;;;;;;;5107649;28;20527;-59
2021/07/20 13:53:25;;;;;;;15.00;10.07;;;;;;;;;;5122384;28;20450;-58
2021/07/20 13:55:59;;;;;;;13.30;9.23;;;;;;;;;;5132213;28;20458;-62
2021/07/20 14:01:19;;;;;;;13.67;8.87;;;;;;;;;;5137950;28;20462;-61
2021/07/20 14:04:18;;;;;;;12.47;8.73;;;;;;;;;;5136786;28;20446;-59
2021/07/20 14:06:46;;;;;;;10.80;7.40;;;;;;;;;;5137981;28;20450;-61
2021/07/20 14:09:15;;;;;;;11.23;7.63;;;;;;;;;;5138195;28;20454;-59
2021/07/20 14:11:47;;;;;;;12.40;8.93;;;;;;;;;;5139123;28;20454;-60
2021/07/20 14:14:26;;;;;;;21.00;10.00;;;;;;;;;;5138906;28;20463;-62
2021/07/20 14:16:54;;;;;;;12.97;9.20;;;;;;;;;;5135807;28;20442;-60
2021/07/20 14:19:23;;;;;;;12.93;9.77;;;;;;;;;;5124495;28;20483;-61
2021/07/20 14:21:54;;;;;;;12.10;8.70;;;;;;;;;;5132891;28;20487;-61
2021/07/20 14:24:48;;;;;;;14.60;8.17;;;;;;;;;;5138990;28;20462;-64
2021/07/20 14:27:16;;;;;;;11.60;7.90;;;;;;;;;;5138347;28;20487;-62
2021/07/20 14:29:54;;;;;;;12.10;8.80;;;;;;;;;;5137613;28;20514;-62
2021/07/20 14:32:46;;;;;;;14.43;8.37;;;;;;;;;;5138239;28;20469;-59
2021/07/20 14:35:16;;;;;;;10.07;6.77;;;;;;;;;;5135412;28;20497;-61
2021/07/20 14:37:47;;;;;;;13.07;9.50;;;;;;;;;;5108886;28;20458;-59
2021/07/20 14:40:56;;;;;;;16.87;8.87;;;;;;;;;;5137406;28;20503;-59
2021/07/20 14:43:33;;;;;;;11.50;7.50;;;;;;;;;;5133234;28;20521;-61
2021/07/20 14:46:10;;;;;;;12.03;8.03;;;;;;;;;;5101184;28;20446;-61
2021/07/20 14:48:50;;;;;;;17.63;8.83;;;;;;;;;;5116958;28;20422;-62
2021/07/20 14:54:34;;;;;;;14.37;7.33;;;;;;;;;;5122374;27;20550;-61
2021/07/20 14:57:01;;;;;;;15.70;8.23;;;;;;;;;;5157521;27;20434;-62
2021/07/20 14:59:54;;;;;;;12.90;7.47;;;;;;;;;;5156124;27;20479;-61
2021/07/20 15:02:39;;;;;;;12.73;8.57;;;;;;;;;;5157877;27;20483;-60
2021/07/20 15:05:24;;;;;;;11.77;7.57;;;;;;;;;;5156268;27;20457;-61
2021/07/20 15:08:08;;;;;;;12.57;6.93;;;;;;;;;;5151801;27;20526;-61
2021/07/20 15:10:41;;;;;;;15.83;10.63;;;;;;;;;;5148689;27;20626;-59
2021/07/20 15:13:27;;;;;;;12.87;8.40;;;;;;;;;;5157469;27;20445;-59
2021/07/20 15:15:56;;;;;;;12.73;10.87;;;;;;;;;;5157285;27;20465;-58
2021/07/20 15:18:59;;;;;;;13.03;7.40;;;;;;;;;;5157348;27;20456;-62
2021/07/20 15:21:35;;;;;;;11.00;7.63;;;;;;;;;;5156623;27;20496;-61
2021/07/20 15:24:06;;;;;;;11.83;8.30;;;;;;;;;;5143106;27;20451;-62
2021/07/20 15:26:45;;;;;;;21.17;8.00;;;;;;;;;;5157695;27;20518;-59
2021/07/20 15:43:10;;;;;;;13.90;8.60;;;;;;;;;;5154890;27;20554;-63
2021/07/20 15:45:40;;;;;;;12.33;8.13;;;;;;;;;;5153958;27;20503;-63
2021/07/20 15:48:18;;;;;;;12.43;7.60;;;;;;;;;;5154307;27;20522;-62
2021/07/20 15:54:31;;;;;;;14.00;7.90;;;;;;;;;;5125577;27;20504;-60
2021/07/20 15:57:03;;;;;;;10.70;7.73;;;;;;;;;;5112236;28;20474;-62
2021/07/20 15:59:48;;;;;;;10.43;7.90;;;;;;;;;;5100144;28;20496;-62
2021/07/20 16:05:26;;;;;;;10.60;7.23;;;;;;;;;;5089766;28;20623;-62
2021/07/20 16:07:58;;;;;;;14.73;8.50;;;;;;;;;;5089207;28;20436;-62
2021/07/20 16:10:54;;;;;;;14.90;10.60;;;;;;;;;;5090337;28;20448;-62
2021/07/20 16:13:23;;;;;;;15.00;9.73;;;;;;;;;;5092141;28;20463;-60
2021/07/20 16:15:55;;;;;;;14.43;8.27;;;;;;;;;;5091772;28;20464;-61